sensor_id;sensor_type;location;lat;lon;timestamp;pressure;altitude;pressure_sealevel;temperature;humidity
9672;BME280;4874;43.568;27.824;2023-02-13T00:00:20;100888.25;;;0.57;100.00
9672;BME280;4874;43.568;27.824;2023-02-13T00:02:47;100890.34;;;0.43;100.00
9672;BME280;4874;43.568;27.824;2023-02-13T00:05:14;100883.31;;;0.45;100.00
9672;BME280;4874;43.568;27.824;2023-02-13T00:07:41;100902.03;;;0.65;100.00
9672;BME280;4874;43.568;27.824;2023-02-13T00:10:08;100908.28;;;0.58;100.00
9672;BME280;4874;43.568;27.824;2023-02-13T00:12:35;100910.97;;;0.55;100.00
9672;BME280;4874;43.568;27.824;2023-02-13T00:15:02;100918.81;;;0.55;100.00
9672;BME280;4874;43.568;27.824;2023-02-13T00:17:30;100917.47;;;0.74;100.00
9672;BME280;4874;43.568;27.824;2023-02-13T00:19:57;100921.78;;;0.76;100.00
9672;BME280;4874;43.568;27.824;2023-02-13T00:22:24;100933.38;;;0.65;100.00
9672;BME280;4874;43.568;27.824;2023-02-13T00:24:51;100937.59;;;0.70;100.00
9672;BME280;4874;43.568;27.824;2023-02-13T00:27:18;100922.97;;;0.62;100.00
9672;BME280;4874;43.568;27.824;2023-02-13T00:29:44;100922.97;;;0.62;100.00
9672;BME280;4874;43.568;27.824;2023-02-13T00:32:11;100867.94;;;0.31;100.00
9672;BME280;4874;43.568;27.824;2023-02-13T00:34:38;100915.13;;;0.63;100.00
9672;BME280;4874;43.568;27.824;2023-02-13T00:37:05;100920.66;;;0.48;100.00
9672;BME280;4874;43.568;27.824;2023-02-13T00:39:31;100919.69;;;0.54;100.00
9672;BME280;4874;43.568;27.824;2023-02-13T00:41:58;100919.97;;;0.80;100.00
9672;BME280;4874;43.568;27.824;2023-02-13T00:44:25;100921.19;;;0.64;100.00
9672;BME280;4874;43.568;27.824;2023-02-13T00:46:52;100922.97;;;0.62;100.00
9672;BME280;4874;43.568;27.824;2023-02-13T00:49:18;100930.28;;;0.84;100.00
9672;BME280;4874;43.568;27.824;2023-02-13T00:51:45;100924.41;;;0.76;100.00
9672;BME280;4874;43.568;27.824;2023-02-13T00:54:11;100932.84;;;0.87;100.00
9672;BME280;4874;43.568;27.824;2023-02-13T00:56:38;100929.91;;;1.01;100.00
9672;BME280;4874;43.568;27.824;2023-02-13T00:59:05;100925.44;;;1.06;100.00
9672;BME280;4874;43.568;27.824;2023-02-13T01:01:32;100918.47;;;1.05;100.00
9672;BME280;4874;43.568;27.824;2023-02-13T01:03:59;100897.75;;;0.97;100.00
9672;BME280;4874;43.568;27.824;2023-02-13T01:06:25;100917.50;;;0.72;100.00
9672;BME280;4874;43.568;27.824;2023-02-13T01:08:52;100894.47;;;0.88;100.00
9672;BME280;4874;43.568;27.824;2023-02-13T01:11:19;100913.84;;;1.16;100.00
9672;BME280;4874;43.568;27.824;2023-02-13T01:13:46;100918.50;;;1.03;100.00
9672;BME280;4874;43.568;27.824;2023-02-13T01:16:12;100919.38;;;1.04;100.00
9672;BME280;4874;43.568;27.824;2023-02-13T01:18:41;100871.13;;;0.45;100.00
9672;BME280;4874;43.568;27.824;2023-02-13T01:21:15;100913.09;;;0.74;100.00
9672;BME280;4874;43.568;27.824;2023-02-13T01:23:42;100915.31;;;0.91;100.00
9672;BME280;4874;43.568;27.824;2023-02-13T01:26:15;100919.50;;;0.63;100.00
9672;BME280;4874;43.568;27.824;2023-02-13T01:28:42;100899.22;;;0.36;100.00
9672;BME280;4874;43.568;27.824;2023-02-13T01:31:09;100918.41;;;0.71;100.00
9672;BME280;4874;43.568;27.824;2023-02-13T01:33:36;100923.56;;;0.38;100.00
9672;BME280;4874;43.568;27.824;2023-02-13T01:36:08;100910.06;;;0.56;100.00
9672;BME280;4874;43.568;27.824;2023-02-13T01:38:35;100913.38;;;0.62;100.00
9672;BME280;4874;43.568;27.824;2023-02-13T01:41:02;100916.19;;;0.55;100.00
9672;BME280;4874;43.568;27.824;2023-02-13T01:46:15;100911.50;;;0.69;100.00
9672;BME280;4874;43.568;27.824;2023-02-13T01:48:45;100916.78;;;0.66;100.00
9672;BME280;4874;43.568;27.824;2023-02-13T01:51:21;100879.53;;;0.58;100.00
9672;BME280;4874;43.568;27.824;2023-02-13T01:54:00;100919.16;;;0.76;100.00
9672;BME280;4874;43.568;27.824;2023-02-13T01:56:39;100917.38;;;0.78;100.00
9672;BME280;4874;43.568;27.824;2023-02-13T01:59:14;100908.25;;;0.59;100.00
9672;BME280;4874;43.568;27.824;2023-02-13T02:01:43;100906.72;;;0.49;100.00
9672;BME280;4874;43.568;27.824;2023-02-13T02:04:17;100908.88;;;0.32;100.00
9672;BME280;4874;43.568;27.824;2023-02-13T02:06:48;100913.84;;;0.43;100.00
9672;BME280;4874;43.568;27.824;2023-02-13T02:09:24;100902.31;;;0.53;100.00
9672;BME280;4874;43.568;27.824;2023-02-13T02:12:19;100908.44;;;0.50;100.00
9672;BME280;4874;43.568;27.824;2023-02-13T02:14:48;100913.16;;;0.73;100.00
9672;BME280;4874;43.568;27.824;2023-02-13T02:17:15;100922.09;;;0.63;100.00
9672;BME280;4874;43.568;27.824;2023-02-13T02:25:16;100917.97;;;0.53;100.00
9672;BME280;4874;43.568;27.824;2023-02-13T02:33:17;100924.63;;;0.66;100.00
9672;BME280;4874;43.568;27.824;2023-02-13T02:38:53;100931.72;;;0.21;100.00
9672;BME280;4874;43.568;27.824;2023-02-13T02:44:53;100939.72;;;0.55;100.00
9672;BME280;4874;43.568;27.824;2023-02-13T02:48:17;100935.97;;;0.27;100.00
9672;BME280;4874;43.568;27.824;2023-02-13T02:53:19;100915.06;;;0.27;100.00
9672;BME280;4874;43.568;27.824;2023-02-13T02:56:17;100943.34;;;0.48;100.00
9672;BME280;4874;43.568;27.824;2023-02-13T02:58:54;100942.47;;;0.47;100.00
9672;BME280;4874;43.568;27.824;2023-02-13T03:01:43;100940.66;;;0.51;100.00
9672;BME280;4874;43.568;27.824;2023-02-13T03:04:48;100936.22;;;0.54;100.00
9672;BME280;4874;43.568;27.824;2023-02-13T03:07:36;100899.81;;;0.47;100.00
9672;BME280;4874;43.568;27.824;2023-02-13T03:10:04;100942.63;;;0.40;100.00
9672;BME280;4874;43.568;27.824;2023-02-13T03:12:54;100940.28;;;0.28;100.00
9672;BME280;4874;43.568;27.824;2023-02-13T03:15:44;100930.84;;;0.22;100.00
9672;BME280;4874;43.568;27.824;2023-02-13T03:18:36;100939.78;;;0.11;100.00
9672;BME280;4874;43.568;27.824;2023-02-13T03:30:30;100941.63;;;0.06;100.00
9672;BME280;4874;43.568;27.824;2023-02-13T03:36:25;100949.34;;;0.12;100.00
9672;BME280;4874;43.568;27.824;2023-02-13T03:41:59;100944.44;;;-0.04;100.00
9672;BME280;4874;43.568;27.824;2023-02-13T03:44:34;100935.59;;;0.02;100.00
9672;BME280;4874;43.568;27.824;2023-02-13T03:47:04;100942.78;;;0.34;100.00
9672;BME280;4874;43.568;27.824;2023-02-13T03:49:39;100950.19;;;0.14;100.00
9672;BME280;4874;43.568;27.824;2023-02-13T03:52:31;100950.59;;;-0.08;100.00
9672;BME280;4874;43.568;27.824;2023-02-13T03:55:12;100948.50;;;0.10;100.00
9672;BME280;4874;43.568;27.824;2023-02-13T03:58:05;100943.63;;;-0.09;100.00
9672;BME280;4874;43.568;27.824;2023-02-13T04:00:55;100944.97;;;-0.32;100.00
9672;BME280;4874;43.568;27.824;2023-02-13T04:06:55;100946.59;;;-0.27;100.00
9672;BME280;4874;43.568;27.824;2023-02-13T04:09:24;100942.22;;;-0.25;100.00
9672;BME280;4874;43.568;27.824;2023-02-13T04:12:16;100917.78;;;-0.66;100.00
9672;BME280;4874;43.568;27.824;2023-02-13T04:14:46;100953.59;;;-0.29;100.00
9672;BME280;4874;43.568;27.824;2023-02-13T04:17:20;100952.44;;;-0.13;100.00
9672;BME280;4874;43.568;27.824;2023-02-13T04:19:49;100953.25;;;-0.09;100.00
9672;BME280;4874;43.568;27.824;2023-02-13T04:22:17;100955.91;;;-0.12;100.00
9672;BME280;4874;43.568;27.824;2023-02-13T04:24:44;100949.88;;;-0.17;100.00
9672;BME280;4874;43.568;27.824;2023-02-13T04:27:15;100948.75;;;-0.03;100.00
9672;BME280;4874;43.568;27.824;2023-02-13T04:29:43;100958.56;;;-0.15;100.00
9672;BME280;4874;43.568;27.824;2023-02-13T04:32:10;100950.88;;;-0.21;100.00
9672;BME280;4874;43.568;27.824;2023-02-13T04:34:37;100949.06;;;-0.18;100.00
9672;BME280;4874;43.568;27.824;2023-02-13T04:37:04;100954.97;;;-0.10;100.00
9672;BME280;4874;43.568;27.824;2023-02-13T04:39:31;100957.66;;;-0.13;100.00
9672;BME280;4874;43.568;27.824;2023-02-13T04:41:57;100952.53;;;-0.19;100.00
9672;BME280;4874;43.568;27.824;2023-02-13T04:44:24;100941.47;;;-0.30;100.00
9672;BME280;4874;43.568;27.824;2023-02-13T04:46:51;100950.31;;;-0.38;100.00
9672;BME280;4874;43.568;27.824;2023-02-13T04:49:17;100959.28;;;-0.09;100.00
9672;BME280;4874;43.568;27.824;2023-02-13T04:51:44;100951.56;;;-0.13;100.00
9672;BME280;4874;43.568;27.824;2023-02-13T04:54:11;100939.25;;;-0.07;100.00
9672;BME280;4874;43.568;27.824;2023-02-13T04:56:37;100953.06;;;-0.02;100.00
9672;BME280;4874;43.568;27.824;2023-02-13T04:59:04;100950.50;;;-0.03;100.00
9672;BME280;4874;43.568;27.824;2023-02-13T05:01:31;100950.69;;;-0.12;100.00
9672;BME280;4874;43.568;27.824;2023-02-13T05:03:58;100942.50;;;0.06;100.00
9672;BME280;4874;43.568;27.824;2023-02-13T05:06:24;100954.84;;;-0.02;100.00
9672;BME280;4874;43.568;27.824;2023-02-13T05:08:51;100949.53;;;0.03;100.00
9672;BME280;4874;43.568;27.824;2023-02-13T05:11:18;100950.25;;;0.09;100.00
9672;BME280;4874;43.568;27.824;2023-02-13T05:13:44;100956.19;;;0.17;100.00
9672;BME280;4874;43.568;27.824;2023-02-13T05:16:11;100959.53;;;-0.19;100.00
9672;BME280;4874;43.568;27.824;2023-02-13T05:18:38;100958.53;;;-0.12;100.00
9672;BME280;4874;43.568;27.824;2023-02-13T05:21:04;100952.88;;;-0.37;100.00
9672;BME280;4874;43.568;27.824;2023-02-13T05:23:50;100961.66;;;-0.41;100.00
9672;BME280;4874;43.568;27.824;2023-02-13T05:26:16;100964.19;;;-0.36;100.00
9672;BME280;4874;43.568;27.824;2023-02-13T05:28:43;100943.66;;;-0.56;100.00
9672;BME280;4874;43.568;27.824;2023-02-13T05:31:28;100932.94;;;0.03;100.00
9672;BME280;4874;43.568;27.824;2023-02-13T05:33:55;100977.63;;;0.72;100.00
9672;BME280;4874;43.568;27.824;2023-02-13T05:36:22;100975.16;;;1.04;100.00
9672;BME280;4874;43.568;27.824;2023-02-13T05:38:48;100975.09;;;1.41;100.00
9672;BME280;4874;43.568;27.824;2023-02-13T05:41:15;100975.00;;;1.10;100.00
9672;BME280;4874;43.568;27.824;2023-02-13T05:43:42;100968.41;;;0.94;100.00
9672;BME280;4874;43.568;27.824;2023-02-13T05:46:09;100976.69;;;1.11;100.00
9672;BME280;4874;43.568;27.824;2023-02-13T05:48:36;100972.53;;;1.04;100.00
9672;BME280;4874;43.568;27.824;2023-02-13T05:51:03;100971.56;;;1.08;100.00
9672;BME280;4874;43.568;27.824;2023-02-13T05:53:30;100938.84;;;0.91;100.00
9672;BME280;4874;43.568;27.824;2023-02-13T05:56:01;100978.16;;;1.58;100.00
9672;BME280;4874;43.568;27.824;2023-02-13T05:58:29;100958.88;;;1.62;100.00
9672;BME280;4874;43.568;27.824;2023-02-13T06:00:56;100973.25;;;1.78;100.00
9672;BME280;4874;43.568;27.824;2023-02-13T06:03:25;100962.72;;;2.12;100.00
9672;BME280;4874;43.568;27.824;2023-02-13T06:05:53;100980.03;;;2.17;100.00
9672;BME280;4874;43.568;27.824;2023-02-13T06:08:21;100971.78;;;2.31;100.00
9672;BME280;4874;43.568;27.824;2023-02-13T06:10:48;100977.81;;;2.64;100.00
9672;BME280;4874;43.568;27.824;2023-02-13T06:13:16;100977.06;;;2.88;100.00
9672;BME280;4874;43.568;27.824;2023-02-13T06:15:42;100959.84;;;2.79;100.00
9672;BME280;4874;43.568;27.824;2023-02-13T06:18:10;100977.16;;;2.85;100.00
9672;BME280;4874;43.568;27.824;2023-02-13T06:20:37;100981.16;;;2.69;100.00
9672;BME280;4874;43.568;27.824;2023-02-13T06:23:04;100985.28;;;3.05;100.00
9672;BME280;4874;43.568;27.824;2023-02-13T06:25:30;100984.34;;;3.06;100.00
9672;BME280;4874;43.568;27.824;2023-02-13T06:27:57;100983.44;;;3.07;100.00
9672;BME280;4874;43.568;27.824;2023-02-13T06:30:24;100951.66;;;3.16;100.00
9672;BME280;4874;43.568;27.824;2023-02-13T06:32:50;100981.16;;;3.50;100.00
9672;BME280;4874;43.568;27.824;2023-02-13T06:35:17;100984.81;;;3.71;100.00
9672;BME280;4874;43.568;27.824;2023-02-13T06:37:44;100979.50;;;3.47;100.00
9672;BME280;4874;43.568;27.824;2023-02-13T06:40:12;100986.81;;;3.38;100.00
9672;BME280;4874;43.568;27.824;2023-02-13T06:42:41;100985.84;;;3.40;100.00
9672;BME280;4874;43.568;27.824;2023-02-13T06:45:08;100973.47;;;3.18;100.00
9672;BME280;4874;43.568;27.824;2023-02-13T06:47:35;100987.16;;;2.72;100.00
9672;BME280;4874;43.568;27.824;2023-02-13T06:50:02;100984.75;;;2.65;100.00
9672;BME280;4874;43.568;27.824;2023-02-13T06:52:28;100974.94;;;2.42;100.00
9672;BME280;4874;43.568;27.824;2023-02-13T06:54:56;100979.78;;;2.56;100.00
9672;BME280;4874;43.568;27.824;2023-02-13T06:57:22;100984.41;;;2.48;100.00
9672;BME280;4874;43.568;27.824;2023-02-13T06:59:49;100937.03;;;1.95;100.00
9672;BME280;4874;43.568;27.824;2023-02-13T07:02:16;100960.97;;;2.12;100.00
9672;BME280;4874;43.568;27.824;2023-02-13T07:04:47;100974.69;;;2.51;100.00
9672;BME280;4874;43.568;27.824;2023-02-13T07:07:13;100966.19;;;2.72;100.00
9672;BME280;4874;43.568;27.824;2023-02-13T07:09:40;100942.81;;;2.35;100.00
9672;BME280;4874;43.568;27.824;2023-02-13T07:12:07;100971.69;;;2.63;100.00
9672;BME280;4874;43.568;27.824;2023-02-13T07:14:34;100970.09;;;2.28;100.00
9672;BME280;4874;43.568;27.824;2023-02-13T07:17:00;100967.84;;;2.16;100.00
9672;BME280;4874;43.568;27.824;2023-02-13T07:19:27;100966.69;;;2.56;100.00
9672;BME280;4874;43.568;27.824;2023-02-13T07:21:54;100967.41;;;2.61;100.00
9672;BME280;4874;43.568;27.824;2023-02-13T07:24:21;100962.50;;;2.78;100.00
9672;BME280;4874;43.568;27.824;2023-02-13T07:26:47;100967.47;;;3.14;100.00
9672;BME280;4874;43.568;27.824;2023-02-13T07:29:14;100964.34;;;3.03;100.00
9672;BME280;4874;43.568;27.824;2023-02-13T07:31:41;100962.81;;;2.69;100.00
9672;BME280;4874;43.568;27.824;2023-02-13T07:34:07;100959.84;;;2.79;100.00
9672;BME280;4874;43.568;27.824;2023-02-13T07:36:34;100960.78;;;2.77;100.00
9672;BME280;4874;43.568;27.824;2023-02-13T07:39:01;100866.72;;;2.38;100.00
9672;BME280;4874;43.568;27.824;2023-02-13T07:41:28;100964.69;;;3.19;100.00
9672;BME280;4874;43.568;27.824;2023-02-13T07:43:54;100958.59;;;2.91;100.00
9672;BME280;4874;43.568;27.824;2023-02-13T07:46:21;100955.44;;;3.07;100.00
9672;BME280;4874;43.568;27.824;2023-02-13T07:48:50;100955.13;;;2.90;100.00
9672;BME280;4874;43.568;27.824;2023-02-13T07:51:17;100962.28;;;3.13;100.00
9672;BME280;4874;43.568;27.824;2023-02-13T07:53:44;100951.31;;;3.26;100.00
9672;BME280;4874;43.568;27.824;2023-02-13T07:56:11;100917.66;;;3.13;100.00
9672;BME280;4874;43.568;27.824;2023-02-13T07:58:37;100963.88;;;3.43;100.00
9672;BME280;4874;43.568;27.824;2023-02-13T08:01:11;100952.97;;;3.55;100.00
9672;BME280;4874;43.568;27.824;2023-02-13T08:03:38;100958.72;;;3.66;100.00
9672;BME280;4874;43.568;27.824;2023-02-13T08:06:05;100954.22;;;3.70;100.00
9672;BME280;4874;43.568;27.824;2023-02-13T08:08:33;100933.25;;;3.43;100.00
9672;BME280;4874;43.568;27.824;2023-02-13T08:11:06;100961.06;;;3.98;100.00
9672;BME280;4874;43.568;27.824;2023-02-13T08:13:51;100960.28;;;3.96;100.00
9672;BME280;4874;43.568;27.824;2023-02-13T08:16:18;100958.13;;;4.30;100.00
9672;BME280;4874;43.568;27.824;2023-02-13T08:18:45;100959.00;;;4.54;100.00
9672;BME280;4874;43.568;27.824;2023-02-13T08:21:11;100967.50;;;4.37;100.00
9672;BME280;4874;43.568;27.824;2023-02-13T08:23:40;100960.44;;;4.16;100.00
9672;BME280;4874;43.568;27.824;2023-02-13T08:26:07;100961.75;;;4.28;100.00
9672;BME280;4874;43.568;27.824;2023-02-13T08:28:33;100962.66;;;4.73;100.00
9672;BME280;4874;43.568;27.824;2023-02-13T08:31:00;100962.81;;;4.68;100.00
9672;BME280;4874;43.568;27.824;2023-02-13T08:33:27;100966.72;;;5.03;100.00
9672;BME280;4874;43.568;27.824;2023-02-13T08:35:54;100962.94;;;4.42;100.00
9672;BME280;4874;43.568;27.824;2023-02-13T08:38:21;100961.66;;;4.99;100.00
9672;BME280;4874;43.568;27.824;2023-02-13T08:40:47;100961.19;;;4.88;100.00
9672;BME280;4874;43.568;27.824;2023-02-13T08:43:14;100953.31;;;4.88;100.00
9672;BME280;4874;43.568;27.824;2023-02-13T08:45:41;100954.16;;;4.88;100.00
9672;BME280;4874;43.568;27.824;2023-02-13T08:48:07;100955.84;;;4.67;100.00
9672;BME280;4874;43.568;27.824;2023-02-13T08:50:34;100954.25;;;4.85;100.00
9672;BME280;4874;43.568;27.824;2023-02-13T08:53:01;100945.88;;;4.75;100.00
9672;BME280;4874;43.568;27.824;2023-02-13T08:55:28;100953.84;;;4.51;100.00
9672;BME280;4874;43.568;27.824;2023-02-13T08:58:01;100948.09;;;4.41;100.00
9672;BME280;4874;43.568;27.824;2023-02-13T09:00:28;100942.97;;;4.60;100.00
9672;BME280;4874;43.568;27.824;2023-02-13T09:03:02;100943.00;;;4.37;100.00
9672;BME280;4874;43.568;27.824;2023-02-13T09:05:30;100936.50;;;4.47;100.00
9672;BME280;4874;43.568;27.824;2023-02-13T09:08:00;100930.63;;;4.62;100.00
9672;BME280;4874;43.568;27.824;2023-02-13T09:10:30;100935.63;;;4.91;100.00
9672;BME280;4874;43.568;27.824;2023-02-13T09:12:57;100932.59;;;4.78;100.00
9672;BME280;4874;43.568;27.824;2023-02-13T09:15:24;100930.28;;;4.93;100.00
9672;BME280;4874;43.568;27.824;2023-02-13T09:17:51;100931.41;;;5.70;100.00
9672;BME280;4874;43.568;27.824;2023-02-13T09:20:18;100923.00;;;5.21;100.00
9672;BME280;4874;43.568;27.824;2023-02-13T09:22:45;100931.72;;;5.21;100.00
9672;BME280;4874;43.568;27.824;2023-02-13T09:25:12;100922.13;;;5.20;100.00
9672;BME280;4874;43.568;27.824;2023-02-13T09:27:38;100913.88;;;5.08;100.00
9672;BME280;4874;43.568;27.824;2023-02-13T09:30:09;100917.81;;;5.39;100.00
9672;BME280;4874;43.568;27.824;2023-02-13T09:32:36;100909.13;;;5.57;99.73
9672;BME280;4874;43.568;27.824;2023-02-13T09:35:03;100865.59;;;5.09;93.05
9672;BME280;4874;43.568;27.824;2023-02-13T09:37:32;100893.00;;;5.85;91.33
9672;BME280;4874;43.568;27.824;2023-02-13T09:39:58;100889.22;;;6.11;87.15
9672;BME280;4874;43.568;27.824;2023-02-13T09:42:28;100881.13;;;6.34;88.49
9672;BME280;4874;43.568;27.824;2023-02-13T09:44:59;100849.50;;;6.69;88.14
9672;BME280;4874;43.568;27.824;2023-02-13T09:47:39;100866.13;;;6.71;86.74
9672;BME280;4874;43.568;27.824;2023-02-13T09:50:15;100872.59;;;6.64;86.49
9672;BME280;4874;43.568;27.824;2023-02-13T09:52:44;100873.91;;;6.91;85.40
9672;BME280;4874;43.568;27.824;2023-02-13T09:55:25;100874.53;;;6.96;86.08
9672;BME280;4874;43.568;27.824;2023-02-13T09:58:40;100874.34;;;7.01;84.71
9672;BME280;4874;43.568;27.824;2023-02-13T10:01:00;100872.78;;;7.31;84.18
9672;BME280;4874;43.568;27.824;2023-02-13T10:06:23;100803.47;;;7.43;81.43
9672;BME280;4874;43.568;27.824;2023-02-13T10:10:00;100860.69;;;7.77;74.96
9672;BME280;4874;43.568;27.824;2023-02-13T10:14:48;100853.88;;;8.38;70.25
9672;BME280;4874;43.568;27.824;2023-02-13T10:17:40;100813.13;;;7.10;73.33
9672;BME280;4874;43.568;27.824;2023-02-13T10:22:58;100851.56;;;8.48;72.51
9672;BME280;4874;43.568;27.824;2023-02-13T10:25:28;100848.81;;;8.33;74.34
9672;BME280;4874;43.568;27.824;2023-02-13T10:28:05;100840.97;;;7.67;76.01
9672;BME280;4874;43.568;27.824;2023-02-13T10:30:51;100852.50;;;8.47;77.09
9672;BME280;4874;43.568;27.824;2023-02-13T10:33:31;100788.41;;;7.45;75.02
9672;BME280;4874;43.568;27.824;2023-02-13T10:38:39;100832.28;;;8.13;76.29
9672;BME280;4874;43.568;27.824;2023-02-13T10:41:24;100831.84;;;8.53;75.98
9672;BME280;4874;43.568;27.824;2023-02-13T10:49:30;100819.38;;;8.55;78.99
9672;BME280;4874;43.568;27.824;2023-02-13T10:55:08;100798.41;;;8.04;78.93
9672;BME280;4874;43.568;27.824;2023-02-13T11:03:28;100816.53;;;9.03;77.63
9672;BME280;4874;43.568;27.824;2023-02-13T11:05:57;100778.84;;;8.23;78.21
9672;BME280;4874;43.568;27.824;2023-02-13T11:08:39;100802.28;;;8.61;78.42
9672;BME280;4874;43.568;27.824;2023-02-13T11:11:31;100795.72;;;8.97;78.17
9672;BME280;4874;43.568;27.824;2023-02-13T11:16:50;100779.59;;;8.57;79.75
9672;BME280;4874;43.568;27.824;2023-02-13T11:21:58;100768.50;;;8.35;80.97
9672;BME280;4874;43.568;27.824;2023-02-13T11:24:28;100765.84;;;8.50;80.47
9672;BME280;4874;43.568;27.824;2023-02-13T11:27:01;100743.28;;;8.59;79.29
9672;BME280;4874;43.568;27.824;2023-02-13T11:29:36;100757.91;;;8.19;79.44
9672;BME280;4874;43.568;27.824;2023-02-13T11:32:27;100750.44;;;8.72;79.81
9672;BME280;4874;43.568;27.824;2023-02-13T11:34:54;100751.41;;;9.15;79.02
9672;BME280;4874;43.568;27.824;2023-02-13T11:39:54;100749.31;;;8.61;76.93
9672;BME280;4874;43.568;27.824;2023-02-13T11:42:33;100754.06;;;8.85;76.81
9672;BME280;4874;43.568;27.824;2023-02-13T11:45:22;100752.38;;;8.98;76.50
9672;BME280;4874;43.568;27.824;2023-02-13T11:47:50;100742.13;;;8.78;77.49
9672;BME280;4874;43.568;27.824;2023-02-13T11:50:26;100737.78;;;8.91;75.68
9672;BME280;4874;43.568;27.824;2023-02-13T11:52:58;100752.78;;;8.47;76.10
9672;BME280;4874;43.568;27.824;2023-02-13T11:55:33;100736.34;;;9.15;75.16
9672;BME280;4874;43.568;27.824;2023-02-13T11:58:03;100730.97;;;9.31;75.50
9672;BME280;4874;43.568;27.824;2023-02-13T12:00:46;100737.25;;;9.58;74.73
9672;BME280;4874;43.568;27.824;2023-02-13T12:06:10;100714.03;;;9.62;74.88
9672;BME280;4874;43.568;27.824;2023-02-13T12:08:45;100704.75;;;9.12;74.42
9672;BME280;4874;43.568;27.824;2023-02-13T12:11:24;100703.34;;;9.35;74.11
9672;BME280;4874;43.568;27.824;2023-02-13T12:13:54;100670.88;;;9.31;74.12
9672;BME280;4874;43.568;27.824;2023-02-13T12:16:40;100710.63;;;9.60;73.51
9672;BME280;4874;43.568;27.824;2023-02-13T12:19:24;100703.59;;;9.87;73.25
9672;BME280;4874;43.568;27.824;2023-02-13T12:21:59;100694.47;;;9.91;71.84
9672;BME280;4874;43.568;27.824;2023-02-13T12:27:21;100699.19;;;10.00;72.40
9672;BME280;4874;43.568;27.824;2023-02-13T12:33:02;100697.44;;;9.72;74.27
9672;BME280;4874;43.568;27.824;2023-02-13T12:41:16;100675.00;;;9.64;73.60
9672;BME280;4874;43.568;27.824;2023-02-13T12:46:33;100685.63;;;9.49;74.09
9672;BME280;4874;43.568;27.824;2023-02-13T12:57:35;100662.25;;;9.28;76.09
9672;BME280;4874;43.568;27.824;2023-02-13T13:16:42;100666.59;;;9.43;75.56
9672;BME280;4874;43.568;27.824;2023-02-13T13:19:26;100661.25;;;10.26;74.28
9672;BME280;4874;43.568;27.824;2023-02-13T13:22:19;100567.25;;;9.22;75.34
9672;BME280;4874;43.568;27.824;2023-02-13T13:27:32;100625.47;;;9.78;75.76
9672;BME280;4874;43.568;27.824;2023-02-13T13:30:16;100660.47;;;9.42;75.90
9672;BME280;4874;43.568;27.824;2023-02-13T13:32:51;100642.41;;;9.76;74.87
9672;BME280;4874;43.568;27.824;2023-02-13T13:35:20;100644.03;;;9.64;75.06
9672;BME280;4874;43.568;27.824;2023-02-13T13:37:58;100638.22;;;9.86;76.10
9672;BME280;4874;43.568;27.824;2023-02-13T13:40:50;100640.47;;;9.51;76.26
9672;BME280;4874;43.568;27.824;2023-02-13T13:51:07;100631.03;;;9.33;76.49
9672;BME280;4874;43.568;27.824;2023-02-13T13:53:35;100632.69;;;9.48;76.99
9672;BME280;4874;43.568;27.824;2023-02-13T13:56:22;100632.63;;;9.35;76.60
9672;BME280;4874;43.568;27.824;2023-02-13T13:58:49;100601.59;;;9.37;76.19
9672;BME280;4874;43.568;27.824;2023-02-13T14:01:23;100619.75;;;9.29;77.96
9672;BME280;4874;43.568;27.824;2023-02-13T14:03:55;100622.19;;;9.46;78.31
9672;BME280;4874;43.568;27.824;2023-02-13T14:06:24;100620.31;;;9.20;78.69
9672;BME280;4874;43.568;27.824;2023-02-13T14:08:57;100616.31;;;9.56;79.35
9672;BME280;4874;43.568;27.824;2023-02-13T14:11:28;100605.19;;;9.22;80.41
9672;BME280;4874;43.568;27.824;2023-02-13T14:13:55;100605.47;;;9.32;80.43
9672;BME280;4874;43.568;27.824;2023-02-13T14:16:43;100600.66;;;9.24;79.89
9672;BME280;4874;43.568;27.824;2023-02-13T14:19:35;100603.38;;;9.37;80.24
9672;BME280;4874;43.568;27.824;2023-02-13T14:25:21;100601.59;;;9.09;81.44
9672;BME280;4874;43.568;27.824;2023-02-13T14:30:29;100592.44;;;9.15;81.77
9672;BME280;4874;43.568;27.824;2023-02-13T14:33:04;100586.94;;;8.90;83.47
9672;BME280;4874;43.568;27.824;2023-02-13T14:35:34;100589.25;;;8.52;86.11
9672;BME280;4874;43.568;27.824;2023-02-13T14:38:05;100583.22;;;8.64;86.31
9672;BME280;4874;43.568;27.824;2023-02-13T14:40:50;100580.59;;;8.92;85.23
9672;BME280;4874;43.568;27.824;2023-02-13T14:46:40;100591.38;;;9.03;85.56
9672;BME280;4874;43.568;27.824;2023-02-13T14:48:48;100563.13;;;8.76;85.03
9672;BME280;4874;43.568;27.824;2023-02-13T14:51:25;100580.13;;;8.72;85.91
9672;BME280;4874;43.568;27.824;2023-02-13T14:53:58;100578.50;;;8.69;86.47
9672;BME280;4874;43.568;27.824;2023-02-13T14:56:27;100581.25;;;8.68;87.67
9672;BME280;4874;43.568;27.824;2023-02-13T14:59:29;100574.03;;;8.56;89.01
9672;BME280;4874;43.568;27.824;2023-02-13T15:02:27;100575.03;;;8.69;88.66
9672;BME280;4874;43.568;27.824;2023-02-13T15:05:15;100579.09;;;8.60;89.08
9672;BME280;4874;43.568;27.824;2023-02-13T15:07:58;100575.84;;;8.41;90.73
9672;BME280;4874;43.568;27.824;2023-02-13T15:10:49;100542.66;;;8.20;91.49
9672;BME280;4874;43.568;27.824;2023-02-13T15:15:46;100579.50;;;8.39;92.92
9672;BME280;4874;43.568;27.824;2023-02-13T15:18:23;100589.41;;;8.35;93.98
9672;BME280;4874;43.568;27.824;2023-02-13T15:20:53;100586.59;;;8.38;94.07
9672;BME280;4874;43.568;27.824;2023-02-13T15:23:26;100586.69;;;8.21;96.01
9672;BME280;4874;43.568;27.824;2023-02-13T15:26:02;100573.75;;;8.16;97.20
9672;BME280;4874;43.568;27.824;2023-02-13T15:28:30;100597.81;;;8.27;96.74
9672;BME280;4874;43.568;27.824;2023-02-13T15:31:03;100570.97;;;8.33;97.27
9672;BME280;4874;43.568;27.824;2023-02-13T15:33:43;100586.97;;;8.16;99.97
9672;BME280;4874;43.568;27.824;2023-02-13T15:36:16;100593.06;;;8.03;100.00
9672;BME280;4874;43.568;27.824;2023-02-13T15:38:43;100587.63;;;7.90;100.00
9672;BME280;4874;43.568;27.824;2023-02-13T15:43:39;100586.50;;;7.94;100.00
9672;BME280;4874;43.568;27.824;2023-02-13T15:46:20;100589.75;;;7.84;100.00
9672;BME280;4874;43.568;27.824;2023-02-13T15:48:51;100582.13;;;7.64;100.00